Date,TemperatureHighF,TemperatureAvgF,TemperatureLowF,DewpointHighF,DewpointAvgF,DewpointLowF,HumidityHigh,HumidityAvg,HumidityLow,PressureMaxIn,PressureMinIn,WindSpeedMaxMPH,WindSpeedAvgMPH,GustSpeedMaxMPH,PrecipitationSumIn
2014-1-1,31.0,23.6,18.0,24.0,18.0,3.0,100,81,38,0.00,40.00,30,9,46,0.00
2014-1-2,41.0,29.7,24.0,21.0,14.2,7.0,63,52,44,0.00,40.00,11,5,17,0.00
2014-1-3,35.0,30.0,25.0,26.0,19.8,14.0,94,66,51,0.00,40.00,20,12,38,0.00
2014-1-4,25.0,9.0,5.0,22.0,7.4,-99.9,100,96,87,0.00,40.00,34,19,49,0.00
2014-1-5,11.0,5.7,2.0,5.0,1.5,-4.0,100,83,57,0.00,40.00,32,23,44,0.00
2014-1-6,33.0,20.0,11.0,14.0,1.1,-9.0,57,44,21,0.00,40.00,26,14,33,0.00
2014-1-7,35.0,26.3,21.0,24.0,17.9,-2.0,100,74,24,0.00,40.00,20,10,34,0.00
2014-1-8,27.0,21.6,18.0,27.0,21.5,18.0,100,100,93,0.00,40.00,13,5,21,0.00
2014-1-9,20.0,15.2,10.0,20.0,14.8,6.0,100,98,80,0.00,40.00,31,16,48,0.00
2014-1-10,24.0,19.3,11.0,24.0,18.9,10.0,100,98,85,0.00,40.00,36,15,54,0.00
2014-1-11,31.0,27.0,24.0,27.0,24.2,-99.9,100,92,80,0.00,40.00,34,20,51,0.00
2014-1-12,31.0,14.8,11.0,27.0,14.6,11.0,100,99,72,0.00,40.00,38,20,58,0.00
2014-1-13,26.0,20.5,15.0,23.0,19.4,15.0,100,96,83,0.00,40.00,26,16,43,0.00
2014-1-14,26.0,22.0,17.0,21.0,18.3,16.0,100,86,73,0.00,40.00,34,15,47,0.00
2014-1-15,31.0,26.0,22.0,20.0,12.1,4.0,89,57,37,0.00,40.00,28,13,37,0.00
2014-1-16,31.0,27.2,25.0,14.0,7.5,0.0,62,43,32,0.00,40.00,25,19,34,0.00
2014-1-17,34.0,28.7,25.0,15.0,7.5,-1.0,56,41,28,0.00,40.00,17,10,22,0.00
2014-1-18,41.0,30.5,26.0,20.0,7.8,-99.9,54,40,26,0.00,40.00,14,6,19,0.00
2014-1-19,41.0,34.9,31.0,20.0,10.2,-1.0,47,36,21,0.00,40.00,13,5,22,0.00
2014-1-20,34.0,30.5,24.0,14.0,8.5,-3.0,53,40,21,0.00,40.00,21,9,26,0.00
2014-1-21,42.0,33.6,30.0,9.0,2.8,-17.0,36,27,11,0.00,40.00,9,4,14,0.00
2014-1-22,33.0,27.4,16.0,15.0,6.6,-1.0,93,44,25,0.00,40.00,17,6,21,0.00
2014-1-23,30.0,17.6,12.0,17.0,12.2,6.0,100,82,44,0.00,40.00,20,8,26,0.00
2014-1-24,33.0,30.6,26.0,-3.0,-15.4,-21.0,21,13,10,0.00,40.00,17,13,23,0.00
2014-1-25,36.0,31.2,27.0,19.0,-3.2,-99.9,62,28,9,0.00,40.00,19,12,23,0.00
2014-1-26,35.0,28.3,23.0,22.0,11.8,1.0,76,51,31,0.00,40.00,17,8,24,0.00
2014-1-27,27.0,23.6,15.0,20.0,15.9,12.0,100,73,56,0.00,40.00,26,16,43,0.00
2014-1-28,29.0,17.8,8.0,18.0,1.8,-15.0,100,54,23,0.00,40.00,21,10,34,0.00
2014-1-29,32.0,25.4,21.0,32.0,24.6,17.0,100,97,81,0.00,40.00,42,18,58,0.00
2014-1-30,22.0,18.5,15.0,22.0,18.5,15.0,100,100,100,0.00,40.00,25,8,31,0.00
2014-1-31,18.0,13.0,8.0,18.0,13.0,8.0,100,100,100,0.00,40.00,15,8,19,0.00
2014-2-1,18.0,9.0,6.0,18.0,8.0,-99.9,100,99,100,0.00,40.00,20,11,28,0.00
2014-2-2,13.0,7.9,4.0,13.0,7.5,4.0,100,98,89,0.00,40.00,28,11,35,0.00
2014-2-3,17.0,11.2,8.0,17.0,10.9,8.0,100,99,90,0.00,40.00,22,11,34,0.00
2014-2-4,12.0,6.0,1.0,10.0,5.0,-1.0,100,95,79,0.00,40.00,19,10,28,0.00
2014-2-5,11.0,5.4,1.0,7.0,2.8,-1.0,100,89,67,0.00,40.00,23,13,28,0.00
2014-2-6,17.0,13.2,11.0,16.0,11.4,6.0,100,92,81,0.00,40.00,22,14,28,0.00
2014-2-7,20.0,18.1,16.0,20.0,18.1,16.0,100,100,100,0.00,40.00,33,13,42,0.00
2014-2-8,29.0,24.3,20.0,29.0,24.3,20.0,100,100,100,0.00,40.00,36,21,53,0.00
2014-2-9,29.0,26.4,22.0,29.0,26.4,22.0,100,100,100,0.00,40.00,24,13,44,0.00
2014-2-10,25.0,22.2,16.0,25.0,22.2,16.0,100,100,100,0.00,40.00,21,12,32,0.00
2014-2-11,25.0,19.9,17.0,24.0,19.7,17.0,100,99,88,0.00,40.00,19,10,28,0.00
2014-2-12,31.0,24.8,19.0,31.0,24.7,19.0,100,100,96,0.00,40.00,26,14,41,0.00
2014-2-13,34.0,29.0,25.0,32.0,28.3,25.0,100,98,75,0.00,40.00,29,14,53,0.00
2014-2-14,38.0,30.5,24.0,33.0,29.3,24.0,100,96,78,0.00,40.00,23,13,39,0.00
2014-2-15,41.0,38.3,36.0,31.0,21.0,-99.9,77,52,41,0.00,40.00,28,13,39,0.00
2014-2-16,38.0,28.7,20.0,28.0,20.9,11.0,100,75,50,0.00,40.00,30,20,51,0.00
2014-2-17,35.0,28.1,19.0,15.0,9.5,0.0,85,46,34,0.00,40.00,32,17,40,0.00
2014-2-18,38.0,29.7,23.0,20.0,13.1,5.0,66,50,36,0.00,40.00,21,9,41,0.00
2014-2-19,30.0,19.9,7.0,25.0,15.0,6.0,100,83,54,0.00,40.00,35,21,58,0.00
2014-2-20,20.0,11.6,6.0,15.0,8.5,5.0,100,88,65,0.00,40.00,34,13,49,0.00
2014-2-21,27.0,20.2,14.0,18.0,12.3,4.0,100,75,39,0.00,40.00,18,10,36,0.00
2014-2-22,26.0,22.0,19.0,21.0,15.0,-99.9,100,77,63,0.00,40.00,23,12,41,0.00
2014-2-23,42.0,28.2,22.0,23.0,18.2,14.0,80,67,47,0.00,40.00,19,8,25,0.00
2014-2-24,38.0,33.0,30.0,26.0,18.5,10.0,76,55,40,0.00,40.00,12,7,22,0.00
2014-2-25,38.0,33.7,31.0,30.0,24.5,19.0,93,70,55,0.00,40.00,16,10,30,0.00
2014-2-26,43.0,33.9,29.0,33.0,28.2,23.0,100,80,63,0.00,40.00,16,6,18,0.00
2014-2-27,34.0,27.4,23.0,29.0,25.9,21.0,100,95,60,0.00,40.00,31,14,40,0.00
2014-2-28,29.0,24.3,21.0,29.0,24.3,21.0,100,100,100,0.00,40.00,34,13,43,0.00
2014-3-1,29.0,24.2,23.0,29.0,23.1,-99.9,100,99,100,0.00,40.00,44,21,62,0.00
2014-3-2,32.0,25.7,22.0,32.0,25.7,22.0,100,100,100,0.00,40.00,22,8,28,0.00
2014-3-3,32.0,27.4,25.0,32.0,27.2,25.0,100,99,92,0.00,40.00,20,11,24,0.00
2014-3-4,31.0,25.6,22.0,31.0,25.0,22.0,100,97,83,0.00,40.00,23,15,31,0.00
2014-3-5,34.0,27.3,22.0,28.0,21.0,12.0,100,80,40,0.00,40.00,25,14,29,0.00
2014-3-6,36.0,31.4,26.0,31.0,22.0,15.0,100,70,48,0.00,40.00,36,22,43,0.00
2014-3-7,28.0,23.1,20.0,28.0,23.1,20.0,100,100,97,0.00,40.00,22,17,29,0.00
2014-3-8,41.0,26.3,19.0,29.0,21.3,-99.9,100,85,61,0.00,40.00,19,10,25,0.00
2014-3-9,45.0,37.6,31.0,18.0,5.5,-9.0,47,27,14,0.00,40.00,21,12,23,0.00
2014-3-10,37.0,33.0,20.0,28.0,16.6,9.0,100,54,32,0.00,40.00,38,22,60,0.00
2014-3-11,21.0,17.8,16.0,21.0,17.8,16.0,100,100,100,0.00,40.00,32,16,41,0.00
2014-3-12,40.0,23.2,14.0,21.0,13.2,7.0,100,69,35,0.00,40.00,15,6,21,0.00
2014-3-13,39.0,30.8,24.0,14.0,6.8,-3.0,61,37,25,0.00,40.00,20,10,23,0.00
2014-3-14,41.0,29.5,22.0,26.0,12.8,2.0,100,51,32,0.00,40.00,29,10,41,0.00
2014-3-15,27.0,23.0,19.0,23.0,15.8,-99.9,100,78,38,0.00,40.00,38,25,61,0.00
2014-3-16,42.0,32.2,26.0,23.0,17.1,-99.9,76,56,39,0.00,40.00,22,13,30,0.00
2014-3-17,38.0,27.3,12.0,25.0,16.7,7.0,100,68,37,0.00,40.00,42,26,60,0.00
2014-3-18,18.0,13.0,10.0,16.0,12.3,10.0,100,97,86,0.00,40.00,28,17,41,0.00
2014-3-19,34.0,21.3,12.0,17.0,8.5,-7.0,100,62,24,0.00,40.00,19,9,24,0.00
2014-3-20,41.0,31.3,26.0,14.0,5.3,-99.9,45,35,21,0.00,40.00,21,11,27,0.00
2014-3-21,41.0,30.5,25.0,18.0,10.7,-99.9,66,46,28,0.00,40.00,20,7,31,0.00
2014-3-22,29.0,24.8,20.0,22.0,13.5,-99.9,100,66,40,0.00,40.00,16,9,27,0.00
2014-3-23,37.0,28.4,23.0,12.0,1.1,-17.0,47,32,14,0.00,40.00,19,8,31,0.00
2014-3-24,41.0,31.3,24.0,17.0,10.9,7.0,55,43,31,0.00,40.00,20,10,30,0.00
2014-3-25,43.0,36.5,31.0,19.0,14.7,10.0,51,41,32,0.00,40.00,21,11,32,0.00
2014-3-26,37.0,29.8,22.0,27.0,21.0,14.0,100,73,39,0.00,40.00,33,13,49,0.00
2014-3-27,26.0,21.6,19.0,26.0,21.1,18.0,100,98,85,0.00,40.00,20,10,35,0.00
2014-3-28,36.0,24.3,18.0,23.0,20.3,18.0,100,86,56,0.00,40.00,23,11,31,0.00
2014-3-29,36.0,31.6,26.0,26.0,21.0,-99.9,83,67,59,0.00,40.00,26,18,43,0.00
2014-3-30,36.0,28.1,18.0,30.0,24.0,18.0,100,86,62,0.00,40.00,42,21,65,0.00
2014-3-31,26.0,19.7,14.0,22.0,17.0,10.0,100,90,64,0.00,40.00,20,8,39,0.00
2014-4-1,24.0,21.5,17.0,24.0,20.4,-99.9,100,99,100,0.00,40.00,30,10,42,0.00
2014-4-2,24.0,17.1,15.0,24.0,17.1,15.0,100,100,100,0.00,40.00,14,7,51,0.00
2014-4-3,30.0,19.1,14.0,26.0,18.5,14.0,100,97,81,0.00,40.00,17,10,22,0.00
2014-4-4,32.0,25.1,20.0,23.0,18.5,15.0,98,77,53,0.00,40.00,20,12,23,0.00
2014-4-5,33.0,25.5,22.0,28.0,22.3,-99.9,100,92,75,0.00,40.00,25,10,40,0.00
2014-4-6,29.0,24.5,20.0,28.0,23.9,20.0,100,97,88,0.00,40.00,35,17,54,0.00
2014-4-7,40.0,31.5,26.0,28.0,25.1,22.0,98,78,56,0.00,40.00,32,20,44,0.00
2014-4-8,55.0,40.9,33.0,33.0,27.7,23.0,74,60,32,0.00,40.00,17,8,20,0.00
2014-4-9,50.0,43.7,40.0,30.0,25.6,23.0,57,49,40,0.00,40.00,26,15,32,0.00
2014-4-10,46.0,41.7,37.0,31.0,27.2,24.0,66,56,44,0.00,40.00,25,14,36,0.00
2014-4-11,52.0,44.1,37.0,29.0,26.7,22.0,66,51,37,0.00,40.00,17,9,26,0.00
2014-4-12,46.0,41.5,35.0,35.0,24.1,-99.9,98,54,38,0.00,40.00,25,11,42,0.00
2014-4-13,35.0,24.8,20.0,32.0,23.4,18.0,100,95,72,0.00,40.00,37,20,58,0.00
2014-4-14,41.0,24.3,14.0,24.0,14.1,0.0,100,72,27,0.00,40.00,17,8,21,0.00
2014-4-15,45.0,35.3,30.0,28.0,12.3,-2.0,87,40,23,0.00,40.00,44,16,60,0.00
2014-4-16,37.0,29.9,23.0,20.0,13.3,3.0,67,50,27,0.00,40.00,38,9,50,0.00
2014-4-17,46.0,36.8,29.0,30.0,21.9,13.0,65,54,48,0.00,40.00,25,10,32,0.00
2014-4-18,48.0,42.5,40.0,31.0,27.3,25.0,66,55,45,0.00,40.00,24,12,34,0.00
2014-4-19,49.0,41.6,37.0,36.0,29.6,-99.9,81,66,51,0.00,40.00,13,7,19,0.00
2014-4-20,50.0,43.9,39.0,37.0,30.9,8.0,89,62,25,0.00,40.00,17,8,30,0.00
2014-4-21,52.0,44.6,39.0,31.0,20.2,6.0,56,38,25,0.00,40.00,19,8,28,0.00
2014-4-22,47.0,42.3,26.0,32.0,29.9,26.0,100,64,46,0.00,40.00,31,13,75,0.00
2014-4-25,44.0,37.7,31.0,32.0,23.5,18.0,100,59,35,0.00,40.00,27,11,45,0.00
2014-4-26,33.0,28.5,23.0,33.0,26.6,-99.9,100,98,94,0.00,40.00,29,11,42,0.00
2014-4-27,27.0,22.2,18.0,25.0,20.8,17.0,100,94,80,0.00,40.00,35,19,56,0.00
2014-4-28,22.0,19.1,16.0,20.0,17.8,15.0,100,95,80,0.00,40.00,27,20,42,0.00
2014-4-29,28.0,22.4,17.0,19.0,15.6,7.0,100,76,48,0.00,40.00,30,20,44,0.00
2014-4-30,38.0,28.1,20.0,21.0,16.8,11.0,93,66,37,0.00,40.00,23,16,34,0.00
2014-5-1,45.0,37.8,32.0,28.0,20.0,13.0,59,48,41,0.00,40.00,19,14,28,0.00
2014-5-2,52.0,46.0,41.0,29.0,25.1,17.0,62,45,26,0.00,40.00,19,10,25,0.00
2014-5-3,58.0,50.2,45.0,27.0,19.6,-99.9,38,31,27,0.00,40.00,26,18,37,0.00
2014-5-4,57.0,50.5,45.0,23.0,17.9,12.0,30,27,24,0.00,40.00,29,18,41,0.00
2014-5-5,55.0,47.7,41.0,28.0,18.1,13.0,59,31,26,0.00,40.00,34,18,44,0.00
2014-5-6,44.0,38.7,30.0,37.0,25.7,18.0,100,63,40,0.00,40.00,20,9,36,0.00
2014-5-13,42.0,36.4,32.0,24.0,15.4,-7.0,59,44,18,0.00,40.00,11,9,17,0.00
2014-5-14,35.0,32.8,31.0,23.0,11.8,-7.0,71,43,17,0.00,40.00,4,2,6,0.00
2014-5-24,48.0,40.7,37.0,43.0,37.9,-99.9,100,94,82,0.00,40.00,18,10,28,0.00
2014-5-25,53.0,46.5,40.0,43.0,40.3,34.0,100,80,59,0.00,40.00,20,13,27,0.00
2014-5-26,65.0,54.2,46.0,42.0,37.1,33.0,83,54,36,0.00,40.00,11,5,19,0.00
2014-5-27,68.0,59.8,52.0,39.0,30.3,22.0,51,34,21,0.00,40.00,19,10,26,0.00
2014-5-28,68.0,60.4,54.0,39.0,34.1,28.0,48,38,30,0.00,40.00,26,10,39,0.00
2014-5-29,61.0,55.0,51.0,42.0,33.2,27.0,61,44,32,0.00,40.00,20,10,32,0.00
2014-5-30,64.0,54.4,48.0,42.0,36.1,31.0,74,51,33,0.00,40.00,19,9,35,0.00
2014-5-31,61.0,52.8,48.0,41.0,29.5,-99.9,73,45,23,0.00,40.00,23,11,48,0.00
2014-6-1,58.0,50.0,43.0,35.0,25.7,15.0,66,40,20,0.00,40.00,21,9,28,0.00
2014-6-2,50.0,49.8,49.0,22.0,20.0,18.0,34,30,28,0.00,40.00,5,3,7,0.00
2014-6-3,62.0,56.9,53.0,33.0,29.2,22.0,40,35,29,0.00,40.00,14,8,26,0.00
2014-6-4,63.0,55.1,51.0,41.0,30.8,25.0,53,40,30,0.00,40.00,17,7,25,0.00
2014-6-5,64.0,55.1,49.0,35.0,28.6,6.0,58,38,14,0.00,40.00,13,7,22,0.00
2014-6-6,63.0,56.6,50.0,29.0,21.3,11.0,29,25,19,0.00,40.00,15,6,24,0.00
2014-6-7,64.0,55.5,49.0,37.0,24.0,-99.9,42,31,23,0.00,40.00,13,6,20,0.00
2014-6-8,52.0,48.0,44.0,35.0,30.9,17.0,65,52,25,0.00,40.00,28,16,41,0.00
2014-6-9,68.0,52.2,40.0,37.0,30.6,25.0,73,45,28,0.00,40.00,15,6,20,0.00
2014-6-10,68.0,58.1,54.0,38.0,30.8,26.0,49,36,27,0.00,40.00,25,15,41,0.00
2014-6-11,63.0,55.3,50.0,36.0,29.3,22.0,52,37,23,0.00,40.00,24,10,32,0.00
2014-6-12,57.0,57.0,57.0,30.0,30.0,30.0,35,35,35,0.00,40.00,11,11,11,0.00
2014-6-16,48.0,43.5,41.0,39.0,37.6,34.0,94,80,64,0.00,40.00,31,11,59,0.00
2014-6-17,41.0,33.2,26.0,38.0,32.9,26.0,100,99,87,0.00,40.00,23,6,39,0.00
2014-6-18,47.0,33.3,26.0,36.0,29.5,26.0,100,88,53,0.00,40.00,17,5,26,0.00
2014-6-19,60.0,47.2,36.0,41.0,34.7,28.0,83,63,42,0.00,40.00,16,6,26,0.00
2014-6-20,68.0,58.0,49.0,37.0,28.5,23.0,49,33,26,0.00,40.00,16,8,26,0.00
2014-6-21,65.0,57.6,54.0,38.0,26.6,-99.9,43,31,27,0.00,40.00,23,11,33,0.00
2014-6-22,64.0,58.6,54.0,37.0,28.1,19.0,43,31,24,0.00,40.00,13,5,20,0.00
2014-6-23,69.0,59.9,53.0,46.0,35.6,24.0,52,40,29,0.00,40.00,10,4,13,0.00
2014-6-24,70.0,61.2,55.0,40.0,34.7,29.0,52,38,24,0.00,40.00,11,6,22,0.00
2014-6-25,71.0,62.7,55.0,41.0,32.8,26.0,44,33,27,0.00,40.00,19,9,25,0.00
2014-6-26,63.0,55.7,41.0,45.0,36.0,29.0,100,51,29,0.00,40.00,28,14,41,0.00
2014-6-27,52.0,44.9,41.0,45.0,42.7,41.0,100,92,72,0.00,40.00,14,8,23,0.00
2014-6-28,64.0,51.0,44.0,45.0,36.6,-99.9,87,64,40,0.00,40.00,14,8,25,0.00
2014-6-29,70.0,60.6,54.0,41.0,35.0,29.0,47,38,34,0.00,40.00,16,8,21,0.00
2014-7-2,75.0,62.3,52.0,44.0,34.0,27.0,45,35,29,0.00,40.00,10,6,16,0.00
2014-7-3,74.0,64.3,60.0,44.0,39.6,35.0,47,40,33,0.00,40.00,30,12,37,0.00
2014-7-4,75.0,64.8,58.0,48.0,41.1,37.0,56,43,29,0.00,40.00,25,10,31,0.00
2014-7-5,73.0,62.9,58.0,52.0,39.9,-99.9,62,46,34,0.00,40.00,26,13,31,0.00
2014-7-6,74.0,68.7,64.0,46.0,38.7,29.0,42,34,26,0.00,40.00,15,8,22,0.00
2014-7-7,73.0,67.6,64.0,41.0,35.6,32.0,35,31,27,0.00,40.00,14,9,23,0.00
2014-7-8,74.0,66.9,61.0,47.0,39.3,33.0,41,36,30,0.00,40.00,13,6,16,0.00
2014-7-10,66.0,59.2,52.0,56.0,52.8,49.0,100,80,68,0.00,40.00,26,10,32,0.00
2014-7-11,62.0,54.3,50.0,58.0,53.3,50.0,100,97,85,0.00,40.00,11,6,15,0.00
2014-7-12,68.0,57.5,52.0,56.0,52.3,49.0,100,84,52,0.00,40.00,13,8,19,0.00
2014-7-13,72.0,64.4,57.0,53.0,50.3,45.0,82,61,47,0.00,40.00,13,9,22,0.00
2014-7-14,79.0,68.9,59.0,53.0,46.1,41.0,61,45,30,0.00,40.00,28,9,38,0.00
2014-7-15,75.0,65.9,58.0,53.0,46.8,42.0,69,51,38,0.00,40.00,21,10,25,0.00
2014-7-16,64.0,59.6,54.0,52.0,45.8,34.0,90,61,44,0.00,40.00,21,14,27,0.00
2014-7-17,58.0,55.2,53.0,46.0,40.8,34.0,68,59,43,0.00,40.00,16,10,21,0.00
2014-7-22,78.0,72.5,64.0,41.0,34.9,30.0,37,26,19,0.00,40.00,12,6,24,0.00
2014-7-23,78.0,68.9,64.0,48.0,38.9,29.0,55,34,24,0.00,40.00,18,11,35,0.00
2014-7-24,76.0,67.6,61.0,49.0,41.8,34.0,57,40,28,0.00,40.00,18,9,33,0.00
2014-7-25,74.0,65.8,60.0,48.0,42.3,37.0,55,43,29,0.00,40.00,23,11,30,0.00
2014-7-26,70.0,63.4,58.0,53.0,45.8,36.0,71,51,35,0.00,40.00,20,9,27,0.00
2014-7-27,79.0,68.5,63.0,47.0,40.7,35.0,47,37,23,0.00,40.00,11,3,19,0.00
2014-7-28,71.0,59.9,52.0,54.0,49.3,42.0,100,71,45,0.00,40.00,18,8,23,0.00
2014-7-30,51.0,49.2,48.0,51.0,49.2,48.0,100,100,100,0.00,40.00,15,7,19,0.00
2014-7-31,61.0,49.4,48.0,55.0,48.0,48.0,100,95,78,0.00,40.00,11,5,18,0.00
2014-8-1,73.0,61.6,53.0,55.0,48.9,45.0,91,64,43,0.00,40.00,9,4,12,0.00
2014-8-2,71.0,62.2,56.0,53.0,46.6,38.0,79,58,32,0.00,40.00,7,4,13,0.00
2014-8-3,71.0,59.7,48.0,52.0,48.0,45.0,100,66,46,0.00,40.00,20,4,27,0.00
2014-8-4,64.0,52.4,48.0,57.0,50.5,47.0,100,94,72,0.00,40.00,30,6,51,0.00
2014-8-5,57.0,50.3,48.0,54.0,50.1,48.0,100,99,91,0.00,40.00,16,8,24,0.00
2014-8-14,68.0,63.5,61.0,51.0,48.8,48.0,63,59,54,0.00,40.00,12,8,21,0.00
2014-8-18,74.0,66.8,59.0,40.0,35.3,33.0,39,32,24,0.00,40.00,12,6,22,0.00
2014-8-19,59.0,50.3,47.0,50.0,46.6,41.0,100,89,54,0.00,40.00,24,9,31,0.00
2014-8-20,60.0,50.2,44.0,57.0,48.1,42.0,100,93,67,0.00,40.00,32,8,42,0.00
2014-8-21,60.0,51.8,45.0,50.0,46.2,42.0,100,82,63,0.00,40.00,25,9,28,0.00
2014-8-22,62.0,51.4,40.0,50.0,44.1,40.0,100,78,52,0.00,40.00,28,16,32,0.00
2014-8-23,41.0,41.0,41.0,41.0,41.0,41.0,100,100,100,0.00,40.00,7,4,15,0.00
2014-8-24,42.0,42.0,42.0,35.0,35.0,35.0,77,77,77,0.00,40.00,10,10,14,0.00
2014-8-25,48.0,46.8,46.0,45.0,42.6,41.0,89,86,84,0.00,40.00,12,10,24,0.00
2014-8-26,57.0,49.6,42.0,50.0,46.3,42.0,100,89,63,0.00,40.00,12,6,18,0.00
2014-8-27,50.0,45.8,42.0,47.0,45.1,42.0,100,98,89,0.00,40.00,15,6,21,0.00
2014-8-28,60.0,52.5,47.0,49.0,45.6,34.0,96,78,46,0.00,40.00,14,8,17,0.00
2014-8-29,66.0,58.5,52.0,49.0,40.2,29.0,66,51,37,0.00,40.00,13,5,20,0.00
2014-8-30,60.0,53.6,48.0,48.0,40.3,38.0,91,59,48,0.00,40.00,24,13,43,0.00
2014-8-31,55.0,50.1,42.0,43.0,38.6,33.0,100,66,51,0.00,40.00,24,12,41,0.00
2014-9-1,60.0,51.7,48.0,39.0,35.1,32.0,62,54,43,0.00,40.00,12,7,18,0.00
2014-9-2,68.0,57.9,52.0,44.0,36.5,31.0,55,46,38,0.00,40.00,11,8,21,0.00
2014-9-3,70.0,61.2,52.0,42.0,39.1,36.0,60,45,35,0.00,40.00,29,12,37,0.00
2014-9-4,65.0,53.2,46.0,44.0,36.4,20.0,66,54,32,0.00,40.00,14,6,17,0.00
2014-9-5,63.0,53.3,46.0,50.0,40.1,28.0,83,62,44,0.00,40.00,13,7,29,0.00
2014-9-6,64.0,54.0,48.0,51.0,44.2,37.0,84,69,47,0.00,40.00,28,10,51,0.00
2014-9-7,68.0,57.8,49.0,48.0,41.7,37.0,81,57,36,0.00,40.00,14,7,25,0.00
2014-9-11,53.0,48.0,35.0,37.0,31.8,25.0,79,54,38,0.00,40.00,17,9,33,0.00
2014-9-12,60.0,45.4,32.0,40.0,30.2,5.0,79,58,15,0.00,40.00,17,5,22,0.00
2014-9-13,64.0,54.8,48.0,37.0,25.8,7.0,40,32,17,0.00,40.00,15,8,21,0.00
2014-9-14,65.0,58.5,54.0,41.0,34.6,26.0,49,41,32,0.00,40.00,22,10,27,0.00
2014-9-15,64.0,57.9,55.0,43.0,37.6,34.0,51,46,43,0.00,40.00,17,8,20,0.00
2014-9-16,70.0,60.6,57.0,45.0,38.9,36.0,50,45,32,0.00,40.00,19,10,21,0.00
2014-9-17,73.0,63.4,57.0,48.0,41.1,37.0,56,45,31,0.00,40.00,19,10,23,0.00
2014-9-18,69.0,60.4,54.0,49.0,45.5,41.0,74,58,46,0.00,40.00,16,8,24,0.00
2014-9-19,61.0,54.8,46.0,55.0,50.3,46.0,100,85,65,0.00,40.00,11,6,16,0.00
2014-9-20,73.0,58.3,52.0,47.0,39.2,32.0,77,50,27,0.00,40.00,11,5,14,0.00
2014-9-21,57.0,48.4,44.0,48.0,43.7,36.0,100,87,48,0.00,40.00,13,7,24,0.00
2014-9-22,54.0,47.9,43.0,50.0,46.0,43.0,100,94,78,0.00,40.00,23,9,27,0.00
2014-9-23,53.0,50.6,49.0,47.0,45.3,44.0,84,82,79,0.00,40.00,12,8,22,0.00
2014-10-7,58.0,50.7,48.0,37.0,34.8,32.0,64,55,46,0.00,40.00,10,7,16,0.00
2014-10-8,55.0,49.7,46.0,36.0,30.5,24.0,64,48,36,0.00,40.00,11,8,18,0.00
2014-10-9,54.0,49.0,45.0,35.0,31.0,28.0,62,50,39,0.00,40.00,12,7,22,0.00
2014-10-10,60.0,49.1,45.0,38.0,32.7,27.0,69,54,41,0.00,40.00,8,4,12,0.00
2014-10-11,53.0,44.8,41.0,35.0,28.8,20.0,70,53,31,0.00,40.00,13,7,28,0.00
2014-10-12,45.0,31.2,26.0,35.0,27.9,23.0,100,89,48,0.00,40.00,35,21,59,0.00
2014-10-13,47.0,36.5,29.0,33.0,25.3,15.0,83,65,42,0.00,40.00,21,6,28,0.00
2014-10-16,50.0,41.9,35.0,33.0,28.8,23.0,82,61,43,0.00,40.00,19,8,26,0.00
2014-10-17,59.0,48.5,42.0,34.0,27.9,19.0,55,45,37,0.00,40.00,10,4,14,0.00
2014-10-18,59.0,47.4,43.0,36.0,30.5,25.0,65,50,41,0.00,40.00,24,7,30,0.00
2014-10-19,58.0,49.2,44.0,37.0,33.3,28.0,67,54,45,0.00,40.00,8,4,13,0.00
2014-10-20,57.0,48.3,44.0,40.0,35.8,33.0,82,62,45,0.00,40.00,11,6,23,0.00
2014-10-21,48.0,41.0,34.0,41.0,37.3,20.0,100,87,52,0.00,40.00,26,9,41,0.00
2014-10-22,51.0,39.1,33.0,32.0,25.8,18.0,84,59,42,0.00,40.00,11,4,14,0.00
2014-10-23,56.0,46.3,39.0,32.0,28.0,26.0,62,50,33,0.00,40.00,30,18,37,0.00
2014-10-24,57.0,49.7,44.0,32.0,28.4,25.0,55,44,33,0.00,40.00,33,20,45,0.00
2014-10-26,46.0,38.5,26.0,40.0,33.6,22.0,100,83,61,0.00,40.00,46,15,63,0.00
2014-10-27,31.0,24.5,20.0,23.0,19.6,16.0,100,82,57,0.00,40.00,23,10,32,0.00
2014-10-28,47.0,34.3,25.0,21.0,12.4,-1.0,68,41,27,0.00,40.00,9,5,13,0.00
2014-10-29,51.0,42.1,36.0,27.0,22.4,13.0,59,46,34,0.00,40.00,10,5,15,0.00
2014-10-30,56.0,46.2,41.0,28.0,25.2,22.0,53,44,30,0.00,40.00,13,5,24,0.00
2014-10-31,53.0,45.3,40.0,28.0,23.3,18.0,59,42,30,0.00,40.00,15,10,39,0.00
2014-11-1,48.0,37.3,28.0,39.0,30.9,26.0,100,79,58,0.00,40.00,46,14,63,0.00
2014-11-2,28.0,27.1,26.0,28.0,27.1,26.0,100,100,99,0.00,40.00,20,12,25,0.00
2014-11-3,28.0,21.9,18.0,28.0,21.9,18.0,100,100,100,0.00,40.00,14,6,16,0.00
2014-11-4,40.0,27.4,18.0,33.0,23.6,18.0,100,87,58,0.00,40.00,14,7,16,0.00
2014-11-5,45.0,32.4,27.0,34.0,29.2,25.0,100,89,60,0.00,40.00,18,8,24,0.00
2014-11-6,51.0,45.4,41.0,27.0,19.4,7.0,51,36,22,0.00,40.00,22,11,32,0.00
2014-11-7,45.0,40.4,33.0,33.0,30.1,27.0,100,68,51,0.00,40.00,18,11,28,0.00
2014-11-8,49.0,40.1,34.0,32.0,20.9,5.0,91,46,20,0.00,40.00,10,4,12,0.00
2014-11-9,51.0,43.9,39.0,31.0,22.3,9.0,60,43,25,0.00,40.00,21,11,35,0.00
2014-11-10,43.0,25.5,18.0,30.0,20.6,10.0,100,83,54,0.00,40.00,42,18,62,0.00
2014-11-11,29.0,20.9,14.0,21.0,15.5,10.0,100,80,59,0.00,40.00,11,5,24,0.00
2014-11-12,16.0,11.6,9.0,16.0,11.6,9.0,100,98,99,0.00,40.00,9,5,12,0.00
2014-11-13,30.0,21.9,15.0,30.0,21.9,15.0,100,100,100,0.00,40.00,22,13,32,0.00
2014-11-14,30.0,25.5,22.0,30.0,25.5,22.0,100,100,98,0.00,40.00,18,9,33,0.00
2014-11-15,26.0,13.5,1.0,26.0,9.0,-6.0,100,84,38,0.00,40.00,36,20,55,0.00
2014-11-16,13.0,6.3,-1.0,12.0,5.0,-1.0,100,95,76,0.00,40.00,24,18,32,0.00
2014-11-17,20.0,16.2,12.0,17.0,13.3,9.0,100,88,79,0.00,40.00,20,14,23,0.00
2014-11-18,32.0,24.4,16.0,20.0,13.2,7.0,100,64,41,0.00,40.00,15,9,18,0.00
2014-11-19,40.0,31.0,26.0,18.0,8.8,0.0,54,39,28,0.00,40.00,12,4,15,0.00
2014-11-20,38.0,31.2,27.0,18.0,8.4,-1.0,67,39,23,0.00,40.00,11,3,12,0.00
2014-11-21,37.0,30.2,27.0,23.0,20.0,16.0,76,65,57,0.00,40.00,12,5,16,0.00
2014-11-22,29.0,24.8,19.0,28.0,23.5,18.0,100,93,80,0.00,40.00,42,24,66,0.00
2014-11-23,19.0,14.6,13.0,19.0,14.4,13.0,100,99,89,0.00,40.00,39,20,55,0.00
2014-11-24,19.0,15.0,13.0,15.0,12.2,2.0,100,90,52,0.00,40.00,40,19,61,0.00
2014-11-25,30.0,25.4,18.0,30.0,22.7,8.0,100,91,59,0.00,40.00,29,20,49,0.00
2014-11-26,37.0,33.2,29.0,30.0,25.3,16.0,100,75,44,0.00,40.00,28,14,41,0.00
2014-11-27,45.0,38.1,32.0,24.0,21.3,17.0,65,51,41,0.00,40.00,21,16,33,0.00
2014-11-28,44.0,39.9,37.0,17.0,14.4,11.0,42,35,27,0.00,40.00,27,21,46,0.00
2014-11-29,37.0,32.8,31.0,18.0,15.4,14.0,55,47,42,0.00,40.00,36,25,45,0.00
2014-11-30,34.0,29.1,25.0,30.0,23.3,18.0,100,80,56,0.00,40.00,19,9,33,0.00
2014-12-1,32.0,26.8,23.0,29.0,24.7,23.0,100,92,74,0.00,40.00,24,13,29,0.00
2014-12-2,34.0,31.2,28.0,25.0,20.4,11.0,89,66,38,0.00,40.00,30,14,34,0.00
2014-12-3,31.0,27.9,25.0,30.0,27.0,18.0,100,97,57,0.00,40.00,19,13,33,0.00
2014-12-4,35.0,30.9,29.0,35.0,30.8,28.0,100,100,94,0.00,40.00,22,7,31,0.00
2014-12-5,37.0,31.4,28.0,35.0,30.3,28.0,100,96,82,0.00,40.00,9,4,22,0.00
2014-12-6,35.0,29.6,28.0,32.0,28.6,27.0,100,94,74,0.00,40.00,21,9,24,0.00
2014-12-7,37.0,31.7,29.0,33.0,28.5,22.0,100,88,69,0.00,40.00,17,7,19,0.00
2014-12-8,45.0,35.2,31.0,27.0,21.4,15.0,79,57,41,0.00,40.00,22,10,24,0.00
2014-12-9,49.0,39.0,34.0,27.0,16.8,8.0,52,41,29,0.00,40.00,7,3,9,0.00
2014-12-10,43.0,34.0,34.0,22.0,14.6,8.0,59,38,29,0.00,40.00,28,10,33,0.00
2014-12-11,36.0,32.4,31.0,30.0,24.2,18.0,91,70,51,0.00,40.00,32,19,38,0.00
2014-12-12,36.0,31.9,30.0,31.0,29.2,27.0,100,90,80,0.00,40.00,19,10,36,0.00
2014-12-13,31.0,22.8,18.0,31.0,22.8,18.0,100,100,99,0.00,40.00,35,13,46,0.00
2014-12-14,20.0,15.6,12.0,20.0,15.6,12.0,100,98,99,0.00,40.00,19,10,25,0.00
2014-12-15,24.0,17.6,11.0,20.0,12.1,6.0,100,81,48,0.00,40.00,18,9,27,0.00
2014-12-16,25.0,21.9,18.0,22.0,20.0,18.0,100,93,80,0.00,40.00,23,11,28,0.00
2014-12-17,28.0,22.2,20.0,24.0,21.1,18.0,100,96,83,0.00,40.00,13,5,17,0.00
2014-12-18,27.0,19.9,18.0,25.0,19.2,16.0,100,97,90,0.00,40.00,12,6,17,0.00
2014-12-19,26.0,21.4,17.0,26.0,20.2,17.0,100,95,78,0.00,40.00,20,11,25,0.00
2014-12-20,24.0,19.6,21.0,24.0,19.0,21.0,100,97,100,0.00,40.00,19,10,21,0.00
2014-12-22,25.0,20.7,14.0,25.0,20.7,13.0,100,100,100,0.00,40.00,43,33,68,0.00
2014-12-23,20.0,13.7,10.0,13.0,7.7,-5.0,100,79,37,0.00,40.00,25,17,33,0.00
2014-12-24,29.0,24.3,20.0,26.0,22.3,13.0,100,92,74,0.00,40.00,32,19,42,0.00
2014-12-25,23.0,14.4,10.0,23.0,14.4,10.0,100,100,100,0.00,40.00,23,11,34,0.00
2014-12-26,12.0,6.7,4.0,12.0,6.7,4.0,100,100,100,0.00,40.00,19,14,26,0.00
2014-12-27,17.0,7.6,2.0,17.0,7.6,2.0,100,98,100,0.00,40.00,17,8,21,0.00
2014-12-28,16.0,11.5,8.0,16.0,11.5,8.0,100,100,100,0.00,40.00,19,10,33,0.00
2014-12-29,15.0,4.6,-5.0,15.0,4.6,-5.0,100,100,99,0.00,40.00,10,7,14,0.00
2014-12-30,-2.0,-8.3,-15.0,-2.0,-8.9,-16.0,100,96,93,0.00,40.00,14,7,18,0.00
2014-12-31,21.0,8.9,1.0,19.0,7.4,1.0,100,94,76,0.00,40.00,14,7,20,0.00
2015-1-1,18.0,12.1,7.0,10.0,4.5,-3.0,91,72,49,0.00,40.00,18,11,27,0.00
2015-1-2,29.0,22.6,17.0,22.0,19.6,17.0,100,88,73,0.00,40.00,16,7,21,0.00